sensor_id;sensor_type;location;lat;lon;timestamp;pressure;altitude;pressure_sealevel;temperature;humidity
15229;BME280;7717;47.792;12.076;2022-11-20T00:01:43;95642.38;;;6.89;100.00
15229;BME280;7717;47.792;12.076;2022-11-20T00:04:09;95650.88;;;6.83;100.00
15229;BME280;7717;47.792;12.076;2022-11-20T00:06:35;95650.03;;;7.09;100.00
15229;BME280;7717;47.792;12.076;2022-11-20T00:09:00;95635.66;;;7.11;100.00
15229;BME280;7717;47.792;12.076;2022-11-20T00:11:31;95639.03;;;6.99;100.00
15229;BME280;7717;47.792;12.076;2022-11-20T00:13:59;95634.78;;;7.05;100.00
15229;BME280;7717;47.792;12.076;2022-11-20T00:16:26;95639.88;;;7.15;100.00
15229;BME280;7717;47.792;12.076;2022-11-20T00:18:52;95643.28;;;7.17;100.00
15229;BME280;7717;47.792;12.076;2022-11-20T00:21:20;95639.88;;;7.17;100.00
15229;BME280;7717;47.792;12.076;2022-11-20T00:23:46;95644.94;;;7.06;100.00
15229;BME280;7717;47.792;12.076;2022-11-20T00:26:14;95633.09;;;7.07;100.00
15229;BME280;7717;47.792;12.076;2022-11-20T00:28:41;95640.72;;;6.99;100.00
15229;BME280;7717;47.792;12.076;2022-11-20T00:31:11;95638.16;;;7.45;100.00
15229;BME280;7717;47.792;12.076;2022-11-20T00:33:37;95633.03;;;7.54;100.00
15229;BME280;7717;47.792;12.076;2022-11-20T00:36:07;95640.69;;;7.45;100.00
15229;BME280;7717;47.792;12.076;2022-11-20T00:38:34;95643.25;;;7.37;100.00
15229;BME280;7717;47.792;12.076;2022-11-20T00:41:02;95635.59;;;7.30;100.00
15229;BME280;7717;47.792;12.076;2022-11-20T00:43:28;95648.31;;;7.65;100.00
15229;BME280;7717;47.792;12.076;2022-11-20T00:46:05;95653.47;;;7.20;100.00
15229;BME280;7717;47.792;12.076;2022-11-20T00:48:32;95651.75;;;7.35;100.00
15229;BME280;7717;47.792;12.076;2022-11-20T00:50:58;95660.22;;;7.38;100.00
15229;BME280;7717;47.792;12.076;2022-11-20T00:53:23;95655.97;;;7.42;100.00
15229;BME280;7717;47.792;12.076;2022-11-20T00:55:58;95655.13;;;7.52;100.00
15229;BME280;7717;47.792;12.076;2022-11-20T00:58:24;95654.31;;;7.27;100.00
15229;BME280;7717;47.792;12.076;2022-11-20T01:00:53;95661.03;;;7.70;100.00
15229;BME280;7717;47.792;12.076;2022-11-20T01:03:24;95664.47;;;7.66;100.00
15229;BME280;7717;47.792;12.076;2022-11-20T01:05:49;95652.59;;;7.42;100.00
15229;BME280;7717;47.792;12.076;2022-11-20T01:08:15;95664.47;;;7.39;100.00
15229;BME280;7717;47.792;12.076;2022-11-20T01:10:41;95660.19;;;7.68;100.00
15229;BME280;7717;47.792;12.076;2022-11-20T01:13:06;95670.38;;;7.69;100.00
15229;BME280;7717;47.792;12.076;2022-11-20T01:15:50;95674.59;;;7.84;100.00
15229;BME280;7717;47.792;12.076;2022-11-20T01:18:15;95666.09;;;7.79;100.00
15229;BME280;7717;47.792;12.076;2022-11-20T01:20:41;95661.03;;;7.68;100.00
15229;BME280;7717;47.792;12.076;2022-11-20T01:23:06;95677.19;;;7.66;100.00
15229;BME280;7717;47.792;12.076;2022-11-20T01:25:31;95673.78;;;7.56;100.00
15229;BME280;7717;47.792;12.076;2022-11-20T01:27:59;95664.47;;;7.39;100.00
15229;BME280;7717;47.792;12.076;2022-11-20T01:30:24;95678.03;;;7.71;100.00
15229;BME280;7717;47.792;12.076;2022-11-20T01:32:49;95666.13;;;7.67;100.00
15229;BME280;7717;47.792;12.076;2022-11-20T01:35:15;95678.84;;;7.73;100.00
15229;BME280;7717;47.792;12.076;2022-11-20T01:37:40;95661.91;;;7.55;100.00
15229;BME280;7717;47.792;12.076;2022-11-20T01:40:09;95666.13;;;7.59;100.00
15229;BME280;7717;47.792;12.076;2022-11-20T01:42:34;95667.84;;;7.65;100.00
15229;BME280;7717;47.792;12.076;2022-11-20T01:45:56;95675.47;;;7.83;100.00
15229;BME280;7717;47.792;12.076;2022-11-20T01:48:26;95672.09;;;7.67;100.00
15229;BME280;7717;47.792;12.076;2022-11-20T01:50:53;95672.06;;;7.75;100.00
15229;BME280;7717;47.792;12.076;2022-11-20T01:53:25;95666.16;;;7.51;100.00
15229;BME280;7717;47.792;12.076;2022-11-20T01:55:55;95677.19;;;7.61;100.00
15229;BME280;7717;47.792;12.076;2022-11-20T01:58:28;95674.66;;;7.56;100.00
15229;BME280;7717;47.792;12.076;2022-11-20T02:00:55;95681.38;;;7.82;100.00
15229;BME280;7717;47.792;12.076;2022-11-20T02:03:21;95676.25;;;8.04;100.00
15229;BME280;7717;47.792;12.076;2022-11-20T02:05:51;95672.00;;;8.00;100.00
15229;BME280;7717;47.792;12.076;2022-11-20T02:08:19;95665.22;;;8.05;100.00
15229;BME280;7717;47.792;12.076;2022-11-20T02:10:46;95661.75;;;8.15;100.00
15229;BME280;7717;47.792;12.076;2022-11-20T02:13:11;95670.25;;;8.13;100.00
15229;BME280;7717;47.792;12.076;2022-11-20T02:15:55;95664.28;;;8.21;100.00
15229;BME280;7717;47.792;12.076;2022-11-20T02:18:21;95652.41;;;8.17;100.00
15229;BME280;7717;47.792;12.076;2022-11-20T02:20:50;95652.34;;;8.29;100.00
15229;BME280;7717;47.792;12.076;2022-11-20T02:25:50;95657.47;;;8.23;100.00
15229;BME280;7717;47.792;12.076;2022-11-20T02:28:18;95650.63;;;8.36;100.00
15229;BME280;7717;47.792;12.076;2022-11-20T02:30:44;95654.84;;;8.39;100.00
15229;BME280;7717;47.792;12.076;2022-11-20T02:33:09;95665.94;;;8.38;100.00
15229;BME280;7717;47.792;12.076;2022-11-20T02:38:02;95674.50;;;8.18;100.00
15229;BME280;7717;47.792;12.076;2022-11-20T02:40:28;95672.78;;;8.14;100.00
15229;BME280;7717;47.792;12.076;2022-11-20T02:42:55;95668.56;;;8.18;100.00
15229;BME280;7717;47.792;12.076;2022-11-20T02:45:21;95670.25;;;8.16;100.00
15229;BME280;7717;47.792;12.076;2022-11-20T02:47:47;95676.22;;;8.08;100.00
15229;BME280;7717;47.792;12.076;2022-11-20T02:50:13;95659.22;;;8.09;100.00
15229;BME280;7717;47.792;12.076;2022-11-20T02:52:38;95667.69;;;8.20;100.00
15229;BME280;7717;47.792;12.076;2022-11-20T02:55:04;95662.59;;;8.16;100.00
15229;BME280;7717;47.792;12.076;2022-11-20T02:57:30;95654.94;;;8.16;100.00
15229;BME280;7717;47.792;12.076;2022-11-20T02:59:55;95665.09;;;8.28;100.00
15229;BME280;7717;47.792;12.076;2022-11-20T03:02:20;95649.00;;;8.21;100.00
15229;BME280;7717;47.792;12.076;2022-11-20T03:04:46;95652.41;;;8.14;100.00
15229;BME280;7717;47.792;12.076;2022-11-20T03:07:11;95649.75;;;8.40;100.00
15229;BME280;7717;47.792;12.076;2022-11-20T03:09:37;95658.28;;;8.36;100.00
15229;BME280;7717;47.792;12.076;2022-11-20T03:12:03;95658.41;;;7.99;100.00
15229;BME280;7717;47.792;12.076;2022-11-20T03:14:28;95661.81;;;8.01;100.00
15229;BME280;7717;47.792;12.076;2022-11-20T03:16:54;95662.75;;;7.60;100.00
15229;BME280;7717;47.792;12.076;2022-11-20T03:19:20;95663.50;;;8.01;100.00
15229;BME280;7717;47.792;12.076;2022-11-20T03:21:45;95656.75;;;7.87;100.00
15229;BME280;7717;47.792;12.076;2022-11-20T03:24:14;95668.66;;;7.76;100.00
15229;BME280;7717;47.792;12.076;2022-11-20T03:26:40;95667.78;;;7.99;100.00
15229;BME280;7717;47.792;12.076;2022-11-20T03:29:06;95668.66;;;7.81;100.00
15229;BME280;7717;47.792;12.076;2022-11-20T03:31:34;95670.38;;;7.71;100.00
15229;BME280;7717;47.792;12.076;2022-11-20T03:34:00;95667.88;;;7.37;100.00
15229;BME280;7717;47.792;12.076;2022-11-20T03:36:26;95671.22;;;7.62;100.00
15229;BME280;7717;47.792;12.076;2022-11-20T03:38:54;95677.16;;;7.70;100.00
15229;BME280;7717;47.792;12.076;2022-11-20T03:41:22;95661.94;;;7.52;100.00
15229;BME280;7717;47.792;12.076;2022-11-20T03:43:49;95674.66;;;7.55;100.00
15229;BME280;7717;47.792;12.076;2022-11-20T03:46:14;95678.03;;;7.52;100.00
15229;BME280;7717;47.792;12.076;2022-11-20T03:48:40;95678.88;;;7.50;100.00
15229;BME280;7717;47.792;12.076;2022-11-20T03:51:17;95685.66;;;7.71;100.00
15229;BME280;7717;47.792;12.076;2022-11-20T03:53:45;95682.22;;;7.83;100.00
15229;BME280;7717;47.792;12.076;2022-11-20T03:56:11;95672.00;;;7.93;100.00
15229;BME280;7717;47.792;12.076;2022-11-20T03:58:38;95678.81;;;7.90;100.00
15229;BME280;7717;47.792;12.076;2022-11-20T04:01:09;95677.16;;;7.75;100.00
15229;BME280;7717;47.792;12.076;2022-11-20T04:03:36;95681.44;;;7.50;100.00
15229;BME280;7717;47.792;12.076;2022-11-20T04:06:10;95685.66;;;7.66;100.00
15229;BME280;7717;47.792;12.076;2022-11-20T04:08:36;95683.13;;;7.49;100.00
15229;BME280;7717;47.792;12.076;2022-11-20T04:11:18;95686.53;;;7.39;100.00
15229;BME280;7717;47.792;12.076;2022-11-20T04:13:49;95683.13;;;7.43;100.00
15229;BME280;7717;47.792;12.076;2022-11-20T04:16:15;95687.38;;;7.53;100.00
15229;BME280;7717;47.792;12.076;2022-11-20T04:18:41;95680.59;;;7.57;100.00
15229;BME280;7717;47.792;12.076;2022-11-20T04:21:06;95678.88;;;7.37;100.00
15229;BME280;7717;47.792;12.076;2022-11-20T04:23:32;95672.97;;;7.32;100.00
15229;BME280;7717;47.792;12.076;2022-11-20T04:28:29;95675.50;;;7.25;100.00
15229;BME280;7717;47.792;12.076;2022-11-20T04:31:01;95678.03;;;7.37;100.00
15229;BME280;7717;47.792;12.076;2022-11-20T04:33:27;95679.75;;;7.10;100.00
15229;BME280;7717;47.792;12.076;2022-11-20T04:35:52;95683.97;;;7.42;100.00
15229;BME280;7717;47.792;12.076;2022-11-20T04:38:18;95682.31;;;7.44;100.00
15229;BME280;7717;47.792;12.076;2022-11-20T04:40:43;95683.97;;;7.67;100.00
15229;BME280;7717;47.792;12.076;2022-11-20T04:43:08;95679.69;;;7.75;100.00
15229;BME280;7717;47.792;12.076;2022-11-20T04:45:34;95676.34;;;7.47;100.00
15229;BME280;7717;47.792;12.076;2022-11-20T04:47:59;95678.03;;;7.37;100.00
15229;BME280;7717;47.792;12.076;2022-11-20T04:50:24;95660.22;;;7.46;100.00
15229;BME280;7717;47.792;12.076;2022-11-20T04:52:50;95677.19;;;7.58;100.00
15229;BME280;7717;47.792;12.076;2022-11-20T04:55:15;95667.03;;;7.47;100.00
15229;BME280;7717;47.792;12.076;2022-11-20T04:57:40;95674.66;;;7.15;100.00
15229;BME280;7717;47.792;12.076;2022-11-20T05:00:06;95680.59;;;7.31;100.00
15229;BME280;7717;47.792;12.076;2022-11-20T05:02:32;95673.75;;;7.76;100.00
15229;BME280;7717;47.792;12.076;2022-11-20T05:04:57;95669.47;;;7.84;100.00
15229;BME280;7717;47.792;12.076;2022-11-20T05:07:22;95682.22;;;7.84;100.00
15229;BME280;7717;47.792;12.076;2022-11-20T05:09:48;95667.84;;;7.63;100.00
15229;BME280;7717;47.792;12.076;2022-11-20T05:12:13;95673.72;;;7.88;100.00
15229;BME280;7717;47.792;12.076;2022-11-20T05:14:38;95689.03;;;7.91;100.00
15229;BME280;7717;47.792;12.076;2022-11-20T05:17:04;95685.69;;;7.60;100.00
15229;BME280;7717;47.792;12.076;2022-11-20T05:19:29;95675.47;;;7.68;100.00
15229;BME280;7717;47.792;12.076;2022-11-20T05:21:58;95675.44;;;7.92;100.00
15229;BME280;7717;47.792;12.076;2022-11-20T05:24:23;95677.09;;;7.93;100.00
15229;BME280;7717;47.792;12.076;2022-11-20T05:26:49;95678.78;;;8.08;100.00
15229;BME280;7717;47.792;12.076;2022-11-20T05:29:14;95694.94;;;7.97;100.00
15229;BME280;7717;47.792;12.076;2022-11-20T05:31:40;95692.41;;;7.92;100.00
15229;BME280;7717;47.792;12.076;2022-11-20T05:34:06;95683.94;;;7.85;100.00
15229;BME280;7717;47.792;12.076;2022-11-20T05:36:32;95694.13;;;7.84;100.00
15229;BME280;7717;47.792;12.076;2022-11-20T05:38:57;95691.59;;;7.79;100.00
15229;BME280;7717;47.792;12.076;2022-11-20T05:41:23;95685.63;;;7.96;100.00
15229;BME280;7717;47.792;12.076;2022-11-20T05:43:49;95691.53;;;8.04;100.00
15229;BME280;7717;47.792;12.076;2022-11-20T05:46:17;95694.16;;;7.70;100.00
15229;BME280;7717;47.792;12.076;2022-11-20T05:48:44;95689.84;;;7.89;100.00
15229;BME280;7717;47.792;12.076;2022-11-20T05:51:13;95689.00;;;7.98;100.00
15229;BME280;7717;47.792;12.076;2022-11-20T05:53:38;95674.53;;;8.06;100.00
15229;BME280;7717;47.792;12.076;2022-11-20T05:56:12;95688.13;;;8.08;100.00
15229;BME280;7717;47.792;12.076;2022-11-20T05:58:39;95689.00;;;7.93;100.00
15229;BME280;7717;47.792;12.076;2022-11-20T06:01:11;95694.09;;;7.98;100.00
15229;BME280;7717;47.792;12.076;2022-11-20T06:03:37;95701.75;;;7.98;100.00
15229;BME280;7717;47.792;12.076;2022-11-20T06:06:04;95702.56;;;8.03;100.00
15229;BME280;7717;47.792;12.076;2022-11-20T06:08:30;95687.31;;;7.86;100.00
15229;BME280;7717;47.792;12.076;2022-11-20T06:10:56;95696.63;;;8.01;100.00
15229;BME280;7717;47.792;12.076;2022-11-20T06:13:24;95702.59;;;8.00;100.00
15229;BME280;7717;47.792;12.076;2022-11-20T06:15:51;95697.56;;;7.60;100.00
15229;BME280;7717;47.792;12.076;2022-11-20T06:18:16;95700.94;;;7.69;100.00
15229;BME280;7717;47.792;12.076;2022-11-20T06:20:42;95705.22;;;7.24;100.00
15229;BME280;7717;47.792;12.076;2022-11-20T06:23:07;95698.41;;;7.31;100.00
15229;BME280;7717;47.792;12.076;2022-11-20T06:25:32;95706.06;;;7.35;100.00
15229;BME280;7717;47.792;12.076;2022-11-20T06:27:58;95724.72;;;7.53;100.00
15229;BME280;7717;47.792;12.076;2022-11-20T06:30:23;95719.63;;;7.59;100.00
15229;BME280;7717;47.792;12.076;2022-11-20T06:32:48;95717.94;;;7.55;100.00
15229;BME280;7717;47.792;12.076;2022-11-20T06:35:14;95710.31;;;7.61;100.00
15229;BME280;7717;47.792;12.076;2022-11-20T06:37:39;95716.25;;;7.46;100.00
15229;BME280;7717;47.792;12.076;2022-11-20T06:40:05;95724.72;;;7.57;100.00
15229;BME280;7717;47.792;12.076;2022-11-20T06:42:30;95721.34;;;7.60;100.00
15229;BME280;7717;47.792;12.076;2022-11-20T06:44:57;95726.44;;;7.45;100.00
15229;BME280;7717;47.792;12.076;2022-11-20T06:47:22;95732.34;;;7.57;100.00
15229;BME280;7717;47.792;12.076;2022-11-20T06:49:48;95737.44;;;7.51;100.00
15229;BME280;7717;47.792;12.076;2022-11-20T06:52:13;95738.31;;;7.69;100.00
15229;BME280;7717;47.792;12.076;2022-11-20T06:54:39;95733.22;;;7.67;100.00
15229;BME280;7717;47.792;12.076;2022-11-20T06:57:04;95740.88;;;7.69;100.00
15229;BME280;7717;47.792;12.076;2022-11-20T06:59:29;95737.44;;;7.81;100.00
15229;BME280;7717;47.792;12.076;2022-11-20T07:01:58;95741.72;;;7.65;100.00
15229;BME280;7717;47.792;12.076;2022-11-20T07:04:26;95739.16;;;7.69;100.00
15229;BME280;7717;47.792;12.076;2022-11-20T07:06:51;95731.50;;;7.71;100.00
15229;BME280;7717;47.792;12.076;2022-11-20T07:09:17;95734.06;;;7.74;100.00
15229;BME280;7717;47.792;12.076;2022-11-20T07:11:43;95735.78;;;7.53;100.00
15229;BME280;7717;47.792;12.076;2022-11-20T07:14:08;95747.63;;;7.54;100.00
15229;BME280;7717;47.792;12.076;2022-11-20T07:16:33;95750.19;;;7.64;100.00
15229;BME280;7717;47.792;12.076;2022-11-20T07:18:59;95753.59;;;7.58;100.00
15229;BME280;7717;47.792;12.076;2022-11-20T07:21:27;95751.03;;;7.38;100.00
15229;BME280;7717;47.792;12.076;2022-11-20T07:23:53;95767.13;;;7.23;100.00
15229;BME280;7717;47.792;12.076;2022-11-20T07:26:18;95757.81;;;7.27;100.00
15229;BME280;7717;47.792;12.076;2022-11-20T07:28:45;95769.69;;;7.32;100.00
15229;BME280;7717;47.792;12.076;2022-11-20T07:31:10;95757.81;;;7.54;100.00
15229;BME280;7717;47.792;12.076;2022-11-20T07:33:37;95764.59;;;7.32;100.00
15229;BME280;7717;47.792;12.076;2022-11-20T07:36:03;95768.00;;;7.27;100.00
15229;BME280;7717;47.792;12.076;2022-11-20T07:38:30;95758.66;;;7.24;100.00
15229;BME280;7717;47.792;12.076;2022-11-20T07:40:58;95756.97;;;7.54;100.00
15229;BME280;7717;47.792;12.076;2022-11-20T07:43:26;95756.09;;;7.89;100.00
15229;BME280;7717;47.792;12.076;2022-11-20T07:45:55;95757.81;;;7.79;100.00
15229;BME280;7717;47.792;12.076;2022-11-20T07:48:21;95759.53;;;7.60;100.00
15229;BME280;7717;47.792;12.076;2022-11-20T07:50:46;95758.69;;;7.35;100.00
15229;BME280;7717;47.792;12.076;2022-11-20T07:53:11;95761.25;;;7.66;100.00
15229;BME280;7717;47.792;12.076;2022-11-20T07:55:37;95757.81;;;7.98;100.00
15229;BME280;7717;47.792;12.076;2022-11-20T07:58:03;95739.91;;;8.27;100.00
15229;BME280;7717;47.792;12.076;2022-11-20T08:00:28;95742.47;;;8.22;100.00
15229;BME280;7717;47.792;12.076;2022-11-20T08:02:54;95760.34;;;8.07;100.00
15229;BME280;7717;47.792;12.076;2022-11-20T08:05:19;95753.56;;;7.75;100.00
15229;BME280;7717;47.792;12.076;2022-11-20T08:07:44;95756.16;;;7.58;100.00
15229;BME280;7717;47.792;12.076;2022-11-20T08:10:12;95751.88;;;7.88;100.00
15229;BME280;7717;47.792;12.076;2022-11-20T08:12:49;95759.50;;;8.05;100.00
15229;BME280;7717;47.792;12.076;2022-11-20T08:15:34;95749.34;;;7.65;100.00
15229;BME280;7717;47.792;12.076;2022-11-20T08:18:05;95750.19;;;7.68;100.00
15229;BME280;7717;47.792;12.076;2022-11-20T08:20:31;95755.28;;;7.59;100.00
15229;BME280;7717;47.792;12.076;2022-11-20T08:23:01;95759.53;;;7.77;100.00
15229;BME280;7717;47.792;12.076;2022-11-20T08:25:29;95768.88;;;7.52;100.00
15229;BME280;7717;47.792;12.076;2022-11-20T08:27:57;95740.84;;;7.35;100.00
15229;BME280;7717;47.792;12.076;2022-11-20T08:30:23;95742.53;;;7.48;100.00
15229;BME280;7717;47.792;12.076;2022-11-20T08:32:48;95743.28;;;8.35;100.00
15229;BME280;7717;47.792;12.076;2022-11-20T08:35:14;95670.84;;;10.61;97.82
15229;BME280;7717;47.792;12.076;2022-11-20T08:37:39;95684.00;;;10.32;94.20
15229;BME280;7717;47.792;12.076;2022-11-20T08:40:10;95660.06;;;9.57;89.86
15229;BME280;7717;47.792;12.076;2022-11-20T08:42:36;95630.81;;;9.82;87.56
15229;BME280;7717;47.792;12.076;2022-11-20T08:45:01;95618.00;;;10.60;86.96
15229;BME280;7717;47.792;12.076;2022-11-20T08:47:27;95597.69;;;10.48;83.14
15229;BME280;7717;47.792;12.076;2022-11-20T08:49:52;95591.47;;;11.19;83.53
15229;BME280;7717;47.792;12.076;2022-11-20T08:52:17;95605.66;;;11.40;82.21
15229;BME280;7717;47.792;12.076;2022-11-20T08:54:43;95572.31;;;12.32;79.16
15229;BME280;7717;47.792;12.076;2022-11-20T08:57:08;95550.31;;;12.59;76.94
15229;BME280;7717;47.792;12.076;2022-11-20T08:59:33;95482.97;;;13.51;71.53
15229;BME280;7717;47.792;12.076;2022-11-20T09:01:59;95506.91;;;13.83;72.49
15229;BME280;7717;47.792;12.076;2022-11-20T09:04:24;95564.53;;;12.74;74.27
15229;BME280;7717;47.792;12.076;2022-11-20T09:06:49;95533.34;;;12.53;71.26
15229;BME280;7717;47.792;12.076;2022-11-20T09:09:18;95498.59;;;13.75;69.83
15229;BME280;7717;47.792;12.076;2022-11-20T09:11:44;95464.94;;;14.67;67.55
15229;BME280;7717;47.792;12.076;2022-11-20T09:14:09;95578.03;;;12.82;72.71
15229;BME280;7717;47.792;12.076;2022-11-20T09:16:35;95630.41;;;11.39;74.66
15229;BME280;7717;47.792;12.076;2022-11-20T09:19:00;95641.97;;;13.99;76.96
15229;BME280;7717;47.792;12.076;2022-11-20T09:21:26;95542.09;;;13.82;69.83
15229;BME280;7717;47.792;12.076;2022-11-20T09:23:51;95597.19;;;13.75;72.62
15229;BME280;7717;47.792;12.076;2022-11-20T09:26:16;95563.16;;;11.26;70.02
15229;BME280;7717;47.792;12.076;2022-11-20T09:28:42;95614.47;;;10.67;71.90
15229;BME280;7717;47.792;12.076;2022-11-20T09:31:09;95683.41;;;10.78;76.26
15229;BME280;7717;47.792;12.076;2022-11-20T09:33:35;95671.31;;;10.21;75.43
15229;BME280;7717;47.792;12.076;2022-11-20T09:36:01;95736.84;;;10.30;80.62
15229;BME280;7717;47.792;12.076;2022-11-20T09:38:26;95688.38;;;10.17;76.79
15229;BME280;7717;47.792;12.076;2022-11-20T09:40:58;95666.16;;;10.24;74.88
15229;BME280;7717;47.792;12.076;2022-11-20T09:46:20;95600.28;;;11.53;72.35
15229;BME280;7717;47.792;12.076;2022-11-20T09:54:20;95580.44;;;11.65;71.00
15229;BME280;7717;47.792;12.076;2022-11-20T09:56:55;95526.91;;;11.48;67.22
15229;BME280;7717;47.792;12.076;2022-11-20T09:59:41;95539.75;;;10.98;66.99
15229;BME280;7717;47.792;12.076;2022-11-20T10:05:04;95561.88;;;11.02;69.60
15229;BME280;7717;47.792;12.076;2022-11-20T10:07:37;95561.75;;;11.11;69.55
15229;BME280;7717;47.792;12.076;2022-11-20T10:10:15;95579.38;;;10.75;69.85
15229;BME280;7717;47.792;12.076;2022-11-20T10:15:47;95576.25;;;11.09;71.02
15229;BME280;7717;47.792;12.076;2022-11-20T10:26:17;95471.72;;;12.53;66.33
15229;BME280;7717;47.792;12.076;2022-11-20T10:31:34;95504.72;;;11.91;67.40
15229;BME280;7717;47.792;12.076;2022-11-20T10:34:06;95510.47;;;11.60;68.37
15229;BME280;7717;47.792;12.076;2022-11-20T10:36:44;95518.22;;;11.57;67.92
15229;BME280;7717;47.792;12.076;2022-11-20T10:39:22;95491.84;;;11.50;67.98
15229;BME280;7717;47.792;12.076;2022-11-20T10:41:52;95445.88;;;13.60;65.60
15229;BME280;7717;47.792;12.076;2022-11-20T10:44:26;95392.16;;;14.62;62.77
15229;BME280;7717;47.792;12.076;2022-11-20T10:47:16;95340.97;;;17.39;61.62
15229;BME280;7717;47.792;12.076;2022-11-20T10:49:43;95265.63;;;19.85;57.68
15229;BME280;7717;47.792;12.076;2022-11-20T11:00:18;95228.78;;;18.48;53.11
15229;BME280;7717;47.792;12.076;2022-11-20T11:02:48;95233.19;;;17.01;52.42
15229;BME280;7717;47.792;12.076;2022-11-20T11:07:46;95301.50;;;17.16;57.25
15229;BME280;7717;47.792;12.076;2022-11-20T11:10:16;95293.66;;;17.18;54.21
15229;BME280;7717;47.792;12.076;2022-11-20T11:12:47;95353.69;;;19.07;58.62
15229;BME280;7717;47.792;12.076;2022-11-20T11:15:26;95218.25;;;17.81;50.89
15229;BME280;7717;47.792;12.076;2022-11-20T11:17:52;95307.03;;;18.55;56.11
15229;BME280;7717;47.792;12.076;2022-11-20T11:20:19;95274.78;;;17.16;53.06
15229;BME280;7717;47.792;12.076;2022-11-20T11:25:30;95249.34;;;17.44;51.60
15229;BME280;7717;47.792;12.076;2022-11-20T11:28:00;95211.16;;;18.04;50.68
15229;BME280;7717;47.792;12.076;2022-11-20T11:30:27;95286.00;;;18.61;53.80
15229;BME280;7717;47.792;12.076;2022-11-20T11:33:06;95229.88;;;18.77;50.78
15229;BME280;7717;47.792;12.076;2022-11-20T11:35:32;95318.47;;;16.41;55.38
15229;BME280;7717;47.792;12.076;2022-11-20T11:38:06;95347.13;;;14.20;55.15
15229;BME280;7717;47.792;12.076;2022-11-20T11:40:35;95446.03;;;13.22;59.97
15229;BME280;7717;47.792;12.076;2022-11-20T11:43:07;95437.69;;;12.79;59.42
15229;BME280;7717;47.792;12.076;2022-11-20T11:46:02;95432.81;;;15.04;61.25
15229;BME280;7717;47.792;12.076;2022-11-20T11:48:31;95386.91;;;15.63;59.27
15229;BME280;7717;47.792;12.076;2022-11-20T11:50:59;95275.03;;;17.67;53.56
15229;BME280;7717;47.792;12.076;2022-11-20T11:53:26;95281.56;;;17.18;53.14
15229;BME280;7717;47.792;12.076;2022-11-20T11:56:11;95231.13;;;17.83;51.19
15229;BME280;7717;47.792;12.076;2022-11-20T11:58:45;95256.31;;;18.84;52.01
15229;BME280;7717;47.792;12.076;2022-11-20T12:04:05;95289.50;;;16.95;52.57
15229;BME280;7717;47.792;12.076;2022-11-20T12:06:35;95263.69;;;21.50;53.73
15229;BME280;7717;47.792;12.076;2022-11-20T12:09:08;95232.69;;;18.04;50.76
15229;BME280;7717;47.792;12.076;2022-11-20T12:11:46;95404.47;;;15.28;59.57
15229;BME280;7717;47.792;12.076;2022-11-20T12:14:20;95433.75;;;13.63;59.37
15229;BME280;7717;47.792;12.076;2022-11-20T12:16:50;95516.53;;;13.45;65.74
15229;BME280;7717;47.792;12.076;2022-11-20T12:19:18;95516.03;;;12.98;64.09
15229;BME280;7717;47.792;12.076;2022-11-20T12:30:11;95539.75;;;11.93;65.19
15229;BME280;7717;47.792;12.076;2022-11-20T12:38:15;95494.19;;;12.79;63.78
15229;BME280;7717;47.792;12.076;2022-11-20T12:43:31;95278.13;;;19.78;55.30
15229;BME280;7717;47.792;12.076;2022-11-20T12:56:53;95347.69;;;15.06;56.06
15229;BME280;7717;47.792;12.076;2022-11-20T12:59:49;95277.50;;;17.13;52.94
15229;BME280;7717;47.792;12.076;2022-11-20T13:02:34;95376.75;;;15.58;58.74
15229;BME280;7717;47.792;12.076;2022-11-20T13:08:00;95421.16;;;14.67;62.69
15229;BME280;7717;47.792;12.076;2022-11-20T13:10:52;95409.84;;;13.61;59.80
15229;BME280;7717;47.792;12.076;2022-11-20T13:13:29;95466.91;;;13.10;63.35
15229;BME280;7717;47.792;12.076;2022-11-20T13:16:32;95524.75;;;13.25;67.96
15229;BME280;7717;47.792;12.076;2022-11-20T13:18:47;95447.44;;;12.67;61.59
15229;BME280;7717;47.792;12.076;2022-11-20T13:21:39;95486.16;;;12.57;63.94
15229;BME280;7717;47.792;12.076;2022-11-20T13:24:21;95505.16;;;12.50;65.21
15229;BME280;7717;47.792;12.076;2022-11-20T13:27:00;95521.69;;;12.76;67.28
15229;BME280;7717;47.792;12.076;2022-11-20T13:29:25;95533.13;;;12.61;68.82
15229;BME280;7717;47.792;12.076;2022-11-20T13:31:51;95522.38;;;12.45;68.82
15229;BME280;7717;47.792;12.076;2022-11-20T13:34:27;95531.25;;;12.32;68.68
15229;BME280;7717;47.792;12.076;2022-11-20T13:36:55;95504.25;;;12.14;68.02
15229;BME280;7717;47.792;12.076;2022-11-20T13:39:32;95484.50;;;11.75;65.10
15229;BME280;7717;47.792;12.076;2022-11-20T13:42:20;95505.97;;;11.71;66.79
15229;BME280;7717;47.792;12.076;2022-11-20T13:45:01;95507.66;;;11.74;65.56
15229;BME280;7717;47.792;12.076;2022-11-20T13:47:28;95535.41;;;11.50;68.22
15229;BME280;7717;47.792;12.076;2022-11-20T13:49:56;95520.06;;;11.48;67.02
15229;BME280;7717;47.792;12.076;2022-11-20T14:00:25;95526.81;;;11.54;69.13
15229;BME280;7717;47.792;12.076;2022-11-20T14:05:37;95569.34;;;11.16;70.71
15229;BME280;7717;47.792;12.076;2022-11-20T14:08:06;95585.88;;;10.95;71.52
15229;BME280;7717;47.792;12.076;2022-11-20T14:10:34;95608.75;;;10.48;73.07
15229;BME280;7717;47.792;12.076;2022-11-20T14:13:12;95640.16;;;10.58;74.91
15229;BME280;7717;47.792;12.076;2022-11-20T14:15:40;95656.41;;;10.58;77.57
15229;BME280;7717;47.792;12.076;2022-11-20T14:18:19;95639.94;;;10.08;76.32
15229;BME280;7717;47.792;12.076;2022-11-20T14:20:45;95658.47;;;10.25;77.96
15229;BME280;7717;47.792;12.076;2022-11-20T14:23:10;95652.69;;;10.09;78.85
15229;BME280;7717;47.792;12.076;2022-11-20T14:25:36;95666.28;;;10.15;80.14
15229;BME280;7717;47.792;12.076;2022-11-20T14:28:03;95663.19;;;9.85;80.46
15229;BME280;7717;47.792;12.076;2022-11-20T14:30:43;95643.47;;;9.96;80.91
15229;BME280;7717;47.792;12.076;2022-11-20T14:33:10;95632.41;;;9.96;81.01
15229;BME280;7717;47.792;12.076;2022-11-20T14:35:42;95624.31;;;9.52;82.65
15229;BME280;7717;47.792;12.076;2022-11-20T14:38:12;95621.13;;;9.31;84.06